Airfield :
LOGIN :

Register | Disclaimer

   EN    FR    IT 

 










Legend :    VFR   Marginal VFR   IFR   Intensive IFR   Very Intensive IFR
Visi :
Ceiling :
>= 8 km
>= 3000ft
5 to 8 km
1000 to 3000 ft
1500m to 5 km
500 to 1000 ft
800 to 1500m
200 to 500 ft
< 800m
< 200 ft
Symbols :   Thunderstorms  Fog  Heavy snow  Heavy precipitations  Wind > 20 kt
SIGMETs :     Misc.  Thunderstorms  Icing  Turbulence  Mountain Waves  Volcanic Ashes







- Airport Elevation : 200 ft


EBBL - Klein Brogel AB

CURRENT METAR :
  • 190225Z AUTO 26004KT 9999 BKN023/// BKN034/// 05/04 Q1016 WHT

EXPIRED METARs :
  • 190205Z AUTO VRB02KT 9999 -DZ BKN023/// OVC064/// 05/04 Q1016 WHT
  • 190155Z AUTO 30003KT 9999 SCT033/// BKN067/// 05/04 Q1016 BLU
  • 190125Z AUTO 26005KT 9999 BKN035/// 05/04 Q1016 BLU
  • 190113Z AUTO 26004KT 9999 BKN034/// 05/05 Q1016 BLU
  • 190055Z AUTO 26004KT 7000 -RA SCT025/// BKN037/// 05/05 Q1016 WHT
  • 190025Z AUTO 25004KT 9999 FEW011/// SCT029/// BKN046/// 06/05 Q1016 BLU
  • 182355Z AUTO 32003KT 9999 SCT010/// BKN038/// BKN067/// 06/05 Q1016 GRN
  • 182349Z AUTO 28005KT 9999 SCT015/// BKN039/// BKN067/// 06/05 Q1016 WHT

Expired Forecast.
No reported NOTAMs for that airfield.



MET'MAP, your aeronautical weather chart ! - Copyright ORBIFLY December 2007 - Disclaimer

ORBIFLY MET'MAP TEAM :

Programming & Development : Alexandra Zaïnal
Concept & Development : Baudouin d'Aumeries
Co-Development & Prog : Marc-Olivier Méhu
Technical & hardware support : Manuel Goepfert

Contact : metmap@orbifly.com




SOURCES & CREDITS :

   NOAA